Date,TemperatureHighF,TemperatureAvgF,TemperatureLowF,DewpointHighF,DewpointAvgF,DewpointLowF,HumidityHigh,HumidityAvg,HumidityLow,PressureMaxIn,PressureMinIn,WindSpeedMaxMPH,WindSpeedAvgMPH,GustSpeedMaxMPH,PrecipitationSumIn
2013-1-1,30,21,12,22,13,6,85,73,54,0.00,40.00,8,4,28,0.00
2013-1-2,27,22,14,21,14,8,85,72,50,0.00,40.00,10,7,25,0.00
2013-1-3,36,21,11,10,5,-3,86,57,23,0.00,40.00,6,3,14,0.01
2013-1-4,41,26,18,10,7,2,58,45,27,0.00,40.00,5,2,9,0.01
2013-1-5,35,27,21,19,13,6,77,57,46,0.00,40.00,9,4,23,0.00
2013-1-6,45,31,18,15,11,6,80,46,21,0.00,40.00,7,3,17,0.00
2013-1-7,43,33,26,16,13,9,59,44,28,0.00,40.00,4,2,12,0.00
2013-1-8,43,34,28,23,18,13,61,52,43,0.00,40.00,8,5,18,0.00
2013-1-9,52,38,24,25,20,16,78,50,34,0.00,40.00,7,4,13,0.00
2013-1-10,42,39,33,19,17,15,52,41,33,0.00,40.00,6,3,10,0.00
2013-1-11,39,17,3,20,10,-5,93,75,42,0.00,40.00,11,6,26,0.00
2013-1-12,9,4,1,1,-3,-6,79,73,67,0.00,40.00,11,5,29,0.00
2013-1-13,15,6,1,3,-1,-4,79,72,57,0.00,40.00,9,3,17,0.02
2013-1-14,18,6,-1,3,-4,-8,77,64,45,0.00,40.00,4,2,7,0.03
2013-1-15,29,17,1,27,9,-9,92,71,55,0.00,40.00,8,5,25,0.01
2013-1-16,41,32,27,21,19,17,73,57,41,0.00,40.00,10,6,21,0.18
2013-1-17,43,32,22,18,16,13,70,53,33,0.00,40.00,5,3,10,0.01
2013-1-18,50,37,27,18,14,10,57,40,26,0.00,40.00,6,4,15,0.01
2013-1-19,46,36,25,22,17,14,82,48,30,0.00,40.00,8,4,20,0.00
2013-1-20,28,22,15,20,14,8,89,73,55,0.00,40.00,7,4,15,0.00
2013-1-21,31,18,11,16,12,8,87,76,53,0.00,40.00,6,3,10,0.00
2013-1-22,45,29,16,18,14,9,86,55,29,0.00,40.00,6,3,13,0.00
2013-1-23,33,23,12,15,10,7,84,61,34,0.00,40.00,7,4,17,0.00
2013-1-24,54,35,16,24,17,12,83,53,23,0.00,40.00,6,3,16,0.00
2013-1-25,50,37,26,23,20,15,76,53,29,0.00,40.00,5,3,11,0.00
2013-1-26,50,41,34,25,23,20,63,48,34,0.00,40.00,6,3,14,0.00
2013-1-27,49,39,28,30,26,20,96,61,43,0.00,40.00,7,4,16,0.00
2013-1-28,31,28,22,28,26,20,96,94,87,0.00,40.00,8,2,11,0.00
2013-1-29,34,22,8,22,16,-1,93,76,51,0.00,40.00,8,4,17,0.10
2013-1-30,28,16,1,21,8,-4,84,73,61,0.00,40.00,9,6,25,0.03
2013-1-31,20,12,6,11,3,-3,79,66,55,0.00,40.00,7,5,21,0.00
2013-2-1,38,30,20,31,24,14,92,80,58,0.00,40.00,10,5,22,0.01
2013-2-2,40,33,26,29,23,20,94,68,46,0.00,40.00,12,7,28,0.02
2013-2-3,47,34,23,24,20,18,84,59,38,0.00,40.00,7,3,19,0.01
2013-2-4,42,33,25,22,19,17,74,56,39,0.00,40.00,10,4,25,0.00
2013-2-5,45,37,28,25,23,19,80,58,44,0.00,40.00,6,3,16,0.00
2013-2-6,50,38,32,31,22,19,66,53,36,0.00,40.00,7,3,13,0.00
2013-2-7,46,35,25,24,19,15,81,56,33,0.00,40.00,11,3,19,0.00
2013-2-8,44,37,29,19,16,11,54,43,30,0.00,40.00,11,4,18,0.00
2013-2-9,35,28,24,25,21,13,93,75,50,0.00,40.00,9,3,19,0.00
2013-2-10,31,26,17,21,14,7,75,62,50,0.00,40.00,13,8,31,0.00
2013-2-11,31,20,13,10,8,5,80,60,34,0.00,40.00,9,6,22,0.00
2013-2-12,40,26,15,17,10,4,64,52,38,0.00,40.00,10,5,19,0.00
2013-2-13,46,32,24,29,20,13,91,63,40,0.00,40.00,12,6,27,0.00
2013-2-14,30,25,16,26,13,4,89,61,35,0.00,40.00,11,6,26,0.00
2013-2-15,32,21,13,16,11,4,82,65,41,0.00,40.00,8,4,23,0.00
2013-2-16,50,37,22,25,21,14,72,54,37,0.00,40.00,10,6,23,0.00
2013-2-17,49,36,28,27,21,18,76,56,30,0.00,40.00,10,5,28,0.00
2013-2-18,33,26,18,20,13,8,75,57,44,0.00,40.00,10,7,26,0.00
2013-2-19,28,19,10,16,12,6,85,72,59,0.00,40.00,9,6,28,0.00
2013-2-20,31,21,16,16,12,6,85,67,45,0.00,40.00,9,6,21,0.00
2013-2-21,26,21,18,19,16,13,90,82,68,0.00,40.00,5,3,12,0.04
2013-2-22,36,27,19,23,15,9,90,65,39,0.00,40.00,8,3,20,0.01
2013-2-23,46,32,18,21,13,8,67,47,34,0.00,40.00,6,4,16,0.01
2013-2-24,38,30,21,27,22,13,94,75,43,0.00,40.00,7,3,16,0.09
2013-2-25,39,27,15,18,13,10,88,59,32,0.00,40.00,8,4,15,0.06
2013-2-26,42,30,20,22,17,10,65,57,40,0.00,40.00,8,4,20,0.00
2013-2-27,39,29,21,18,14,9,73,55,32,0.00,40.00,10,5,21,0.00
2013-2-28,43,29,18,23,16,11,82,60,29,0.00,40.00,9,4,22,0.00
2013-3-1,42,33,23,28,23,19,91,68,40,0.00,40.00,8,4,24,0.00
2013-3-2,58,44,33,29,27,24,77,53,29,0.00,40.00,9,5,22,0.00
2013-3-3,61,47,32,30,28,22,75,49,26,0.00,40.00,12,6,27,0.00
2013-3-4,31,23,15,22,10,2,69,57,37,0.00,40.00,20,11,45,0.00
2013-3-5,37,22,10,8,6,3,77,52,26,0.00,40.00,8,5,17,0.00
2013-3-6,53,36,20,23,16,8,64,45,24,0.00,40.00,10,5,18,0.00
2013-3-7,59,45,37,27,23,19,61,42,27,0.00,40.00,12,6,30,0.00
2013-3-8,41,34,28,27,25,23,82,68,54,0.00,40.00,10,6,23,0.00
2013-3-9,49,34,24,28,18,8,94,59,23,0.00,40.00,10,6,27,0.00
2013-3-10,47,33,18,12,7,0,72,37,14,0.00,40.00,6,4,15,0.00
2013-3-11,46,35,27,27,14,5,61,43,28,0.00,40.00,11,5,27,0.00
2013-3-12,42,30,20,17,8,2,72,42,21,0.00,40.00,9,6,24,0.00
2013-3-13,65,46,29,25,17,2,51,32,21,0.00,40.00,7,3,16,0.00
2013-3-14,69,54,40,28,24,22,53,34,17,0.00,40.00,8,3,17,0.00
2013-3-15,68,56,47,29,24,19,46,30,15,0.00,40.00,10,4,24,0.00
2013-3-16,45,32,28,29,27,24,94,82,51,0.00,40.00,7,4,16,0.02
2013-3-17,49,32,25,34,25,18,96,78,41,0.00,40.00,15,6,37,0.11
2013-3-18,39,28,19,19,12,7,80,54,30,0.00,40.00,13,7,33,0.01
2013-3-19,38,30,23,20,12,5,73,48,28,0.00,40.00,9,4,23,0.00
2013-3-20,49,33,17,19,11,0,62,42,27,0.00,40.00,9,5,21,0.00
2013-3-21,40,32,28,30,21,14,94,66,46,0.00,40.00,8,5,19,0.01
2013-3-22,38,28,23,27,23,19,93,80,51,0.00,40.00,7,4,15,0.05
2013-3-23,32,22,15,23,12,7,92,67,38,0.00,40.00,9,5,21,0.06
2013-3-24,25,18,12,12,6,1,87,61,35,0.00,40.00,10,6,26,0.03
2013-3-25,40,22,5,14,4,-2,73,52,18,0.00,40.00,7,4,16,0.00
2013-3-26,51,35,22,17,8,0,52,35,12,0.00,40.00,7,4,15,0.00
2013-3-27,57,38,25,14,12,8,58,39,16,0.00,40.00,8,4,14,0.00
2013-3-28,61,55,49,28,25,22,36,31,26,0.00,40.00,8,5,15,0.00
2013-3-29,67,54,43,28,24,19,43,32,18,0.00,40.00,7,4,19,0.00
2013-3-30,53,46,37,40,32,26,79,61,37,0.00,40.00,14,4,30,0.02
2013-3-31,61,42,28,30,25,17,86,57,23,0.00,40.00,10,5,27,0.01
2013-4-1,55,37,24,24,21,16,92,58,22,0.00,40.00,7,4,19,0.00
2013-4-2,57,43,30,25,19,13,67,42,18,0.00,40.00,8,5,17,0.00
2013-4-3,71,52,38,33,25,18,65,39,14,0.00,40.00,8,4,20,0.00
2013-4-4,61,47,34,32,24,17,63,43,29,0.00,40.00,11,6,26,0.00
2013-4-5,71,54,39,39,27,17,80,38,17,0.00,40.00,14,6,37,0.02
2013-4-6,62,51,40,39,32,25,89,55,26,0.00,40.00,10,5,26,0.02
2013-4-7,63,52,42,37,30,26,68,45,26,0.00,40.00,7,5,19,0.01
2013-4-8,48,38,20,39,31,15,90,76,60,0.00,40.00,8,5,24,0.01
2013-4-9,24,16,13,15,12,7,88,81,67,0.00,40.00,6,4,18,0.04
2013-4-10,30,20,13,20,15,9,90,80,62,0.00,40.00,7,3,11,0.34
2013-4-11,44,27,15,32,22,12,93,79,60,0.00,40.00,8,4,16,0.24
2013-4-12,45,34,27,28,24,20,94,68,47,0.00,40.00,11,6,27,0.05
2013-4-13,54,41,25,35,29,20,86,63,44,0.00,40.00,11,6,20,0.00
2013-4-14,41,33,20,34,23,11,86,66,49,0.00,40.00,15,11,39,0.00
2013-4-15,36,26,16,20,13,9,80,60,39,0.00,40.00,8,5,23,0.00
2013-4-16,26,24,23,21,19,16,90,83,75,0.00,40.00,10,6,25,0.07
2013-4-17,31,25,22,24,21,19,92,85,67,0.00,40.00,6,4,17,0.32
2013-4-18,36,26,15,20,15,11,92,66,45,0.00,40.00,10,6,22,0.08
2013-4-19,47,34,27,32,26,18,91,73,50,0.00,40.00,7,5,16,0.02
2013-4-20,57,42,30,38,32,27,90,70,45,0.00,40.00,8,4,22,0.10
2013-4-21,54,40,32,39,35,30,96,83,39,0.00,40.00,9,5,24,0.31
2013-4-22,32,27,21,30,24,18,97,88,78,0.00,40.00,11,5,27,0.22
2013-4-23,37,26,11,22,17,7,90,69,47,0.00,40.00,8,4,15,0.47
2013-4-24,42,34,24,26,21,15,73,61,46,0.00,40.00,12,6,31,0.10
2013-4-25,66,48,30,25,20,10,74,39,11,0.00,40.00,10,4,21,0.00
2013-4-26,69,57,40,26,21,18,42,26,16,0.00,40.00,8,4,16,0.00
2013-4-27,75,61,43,33,25,21,44,26,14,0.00,40.00,8,5,22,0.00
2013-4-28,69,57,47,41,32,25,78,41,25,0.00,40.00,10,5,20,0.00
2013-4-29,73,56,41,41,34,21,91,52,15,0.00,40.00,13,6,29,0.00
2013-4-30,52,42,32,35,28,21,96,62,31,0.00,40.00,8,5,20,0.10
2013-5-1,42,34,28,29,25,21,88,70,51,0.00,40.00,7,4,14,0.23
2013-5-2,54,40,28,26,21,13,82,50,19,0.00,40.00,8,4,16,0.02
2013-5-3,60,47,34,24,21,16,58,38,20,0.00,40.00,8,5,18,0.00
2013-5-4,56,45,35,20,15,11,44,30,22,0.00,40.00,6,5,16,0.00
2013-5-5,60,48,35,21,17,12,41,29,21,0.00,40.00,6,4,19,0.00
2013-5-6,68,56,41,28,24,17,41,30,21,0.00,40.00,8,5,18,0.00
2013-5-7,74,59,47,43,32,25,66,39,19,0.00,40.00,8,4,16,0.00
2013-5-8,70,60,48,42,37,33,73,45,25,0.00,40.00,9,6,24,0.00
2013-5-9,62,53,46,47,42,35,95,68,43,0.00,40.00,7,3,20,0.23
2013-5-10,72,57,41,47,40,32,91,58,25,0.00,40.00,11,4,26,0.02
2013-5-11,67,52,41,34,27,22,61,39,21,0.00,40.00,8,5,18,0.00
2013-5-12,80,61,43,39,32,23,52,35,20,0.00,40.00,8,5,19,0.00
2013-5-13,89,74,58,42,38,35,46,29,15,0.00,40.00,7,3,19,0.00
2013-5-14,82,72,62,47,40,34,37,31,25,0.00,40.00,12,7,27,0.00
2013-5-15,75,64,54,42,36,28,49,37,27,0.00,40.00,12,8,28,0.00
2013-5-16,77,59,55,55,27,-100,83,59,35,0.00,40.00,15,6,21,0.26
2013-5-17,76,64,54,55,45,-100,84,63,47,0.00,40.00,9,6,26,0.01
2013-5-18,76,63,52,56,50,45,85,63,40,0.00,40.00,8,4,30,0.32
2013-5-19,62,54,50,53,49,43,95,83,60,0.00,40.00,9,5,20,0.45
2013-5-20,56,49,46,43,41,39,85,75,55,0.00,40.00,14,10,31,0.01
2013-5-21,58,48,43,42,39,36,89,71,51,0.00,40.00,11,8,28,0.01
2013-5-22,58,48,42,45,42,40,92,80,59,0.00,40.00,11,5,29,0.01
2013-5-23,63,55,46,45,41,34,95,63,43,0.00,40.00,13,11,33,0.01
2013-5-24,81,66,55,52,40,16,84,50,9,0.00,40.00,12,9,31,0.00
2013-5-25,81,69,56,56,53,50,81,59,38,0.00,40.00,9,6,24,0.00
2013-5-26,72,63,56,56,54,51,93,74,55,0.00,40.00,11,6,25,0.00
2013-5-27,75,62,56,60,55,45,100,82,45,0.00,40.00,10,6,19,0.01
2013-5-28,73,59,45,50,46,41,98,64,38,0.00,40.00,11,5,27,0.01
2013-5-29,68,56,51,52,48,46,93,75,53,0.00,40.00,9,5,20,0.01
2013-5-30,52,48,44,49,45,41,94,89,83,0.00,40.00,17,11,51,1.06
2013-5-31,47,45,44,43,41,40,93,86,80,0.00,40.00,15,13,41,0.32
2013-6-1,65,54,44,42,38,35,85,58,36,0.00,40.00,9,7,20,0.02
2013-6-2,76,61,45,45,41,36,71,50,29,0.00,40.00,10,6,26,0.01
2013-6-3,74,64,55,51,44,38,63,50,30,0.00,40.00,10,6,23,0.00
2013-6-4,64,54,42,41,36,33,78,53,37,0.00,40.00,10,6,20,0.00
2013-6-5,64,52,40,41,37,34,88,60,36,0.00,40.00,6,4,15,0.00
2013-6-6,74,58,44,46,42,38,80,57,30,0.00,40.00,8,4,16,0.00
2013-6-7,80,65,51,51,45,42,72,51,27,0.00,40.00,8,4,22,0.05
2013-6-8,73,62,52,53,46,38,95,59,30,0.00,40.00,12,6,33,0.32
2013-6-9,81,67,52,49,44,39,75,47,24,0.00,40.00,7,4,16,0.01
2013-6-10,86,74,62,57,52,44,64,47,30,0.00,40.00,9,5,26,0.00
2013-6-11,76,68,58,62,57,53,83,68,57,0.00,40.00,15,10,32,0.35
2013-6-12,69,61,54,56,52,49,92,74,60,0.00,40.00,9,6,22,0.35
2013-6-13,71,62,53,56,50,45,82,66,52,0.00,40.00,13,7,25,0.00
2013-6-14,81,71,62,55,48,41,75,46,24,0.00,40.00,12,6,28,0.00
2013-6-15,76,66,57,46,44,41,61,47,29,0.00,40.00,11,5,28,0.00
2013-6-16,82,68,60,58,52,46,79,57,36,0.00,40.00,10,6,25,0.00
2013-6-17,75,62,55,52,50,47,84,65,40,0.00,40.00,8,6,25,0.09
2013-6-18,80,69,55,53,50,45,83,53,34,0.00,40.00,10,6,22,0.03
2013-6-19,84,72,60,61,54,37,67,52,43,0.00,40.00,14,8,31,0.00
2013-6-20,84,72,64,58,53,37,77,56,21,0.00,40.00,10,4,27,0.00
2013-6-22,76,66,55,57,54,50,89,65,50,0.00,40.00,10,6,27,0.21
2013-6-23,78,64,49,51,47,41,96,60,29,0.00,40.00,9,5,21,0.11
2013-6-24,91,74,60,57,47,37,87,45,19,0.00,40.00,13,6,38,0.00
2013-6-25,85,75,66,54,47,41,63,39,25,0.00,40.00,11,6,26,0.00
2013-6-26,91,77,64,53,47,42,55,37,18,0.00,40.00,11,5,25,0.00
2013-6-27,91,76,64,53,50,44,59,42,21,0.00,40.00,10,6,30,0.00
2013-6-28,89,75,61,52,50,47,70,44,24,0.00,40.00,7,4,15,0.00
2013-6-29,82,72,62,54,49,39,65,46,31,0.00,40.00,8,5,23,0.00
2013-6-30,83,70,60,48,46,42,61,42,28,0.00,40.00,7,5,19,0.00
2013-7-1,79,68,58,56,50,45,83,55,34,0.00,40.00,8,4,16,0.04
2013-7-2,82,71,60,53,49,44,79,48,30,0.00,40.00,7,4,16,0.04
2013-7-3,92,78,63,46,41,35,50,29,14,0.00,40.00,10,5,16,0.00
2013-7-4,86,75,64,54,47,40,52,37,25,0.00,40.00,8,4,20,0.00
2013-7-5,86,74,66,59,54,50,79,51,31,0.00,40.00,8,5,20,0.05
2013-7-6,86,72,61,58,55,50,87,59,35,0.00,40.00,9,5,26,0.07
2013-7-7,87,71,59,62,57,50,94,65,34,0.00,40.00,8,5,22,0.33
2013-7-8,90,72,59,62,58,52,94,65,28,0.00,40.00,12,7,30,0.11
2013-7-9,85,74,59,58,54,51,79,52,34,0.00,40.00,8,5,20,0.06
2013-7-10,93,76,63,57,49,-100,66,44,19,0.00,40.00,11,7,22,0.00
2013-7-11,99,83,67,61,54,41,77,44,14,0.00,40.00,15,8,32,0.00
2013-7-12,89,81,73,58,54,50,60,41,26,0.00,40.00,14,6,28,0.00
2013-7-13,95,80,67,60,54,43,58,43,17,0.00,40.00,8,4,17,0.00
2013-7-14,80,71,61,61,58,54,90,63,46,0.00,40.00,9,6,21,0.00
2013-7-15,86,71,61,63,59,49,96,72,36,0.00,40.00,13,6,26,0.00
2013-7-16,88,83,75,51,48,44,42,29,24,0.00,40.00,11,8,20,0.00
2013-7-17,90,78,64,58,53,48,73,45,25,0.00,40.00,12,7,22,0.00
2013-7-18,93,82,67,61,54,50,62,40,27,0.00,40.00,12,4,20,0.01
2013-7-19,86,74,61,62,54,49,94,52,33,0.00,40.00,11,5,22,0.27
2013-7-20,87,74,63,60,53,-100,81,52,33,0.00,40.00,11,6,22,0.08
2013-7-21,90,75,63,60,55,45,82,54,28,0.00,40.00,17,8,28,0.01
2013-7-22,88,76,67,57,50,44,65,43,23,0.00,40.00,14,7,35,0.00
2013-7-23,86,71,61,57,54,51,78,56,31,0.00,40.00,9,5,20,0.00
2013-7-24,87,74,64,59,54,50,80,53,30,0.00,40.00,10,5,21,0.00
2013-7-25,83,72,64,56,52,48,75,51,34,0.00,40.00,8,5,20,0.05
2013-7-26,72,63,52,51,48,43,87,61,47,0.00,40.00,9,6,21,0.09
2013-7-27,71,61,51,52,47,43,74,60,45,0.00,40.00,8,6,21,0.06
2013-7-28,77,65,56,57,54,51,88,69,47,0.00,40.00,9,4,21,0.02
2013-7-29,81,68,56,57,54,49,94,65,37,0.00,40.00,17,6,29,0.03
2013-7-30,90,72,62,60,51,39,83,52,18,0.00,40.00,10,5,33,0.01
2013-7-31,85,71,58,60,52,44,95,57,24,0.00,40.00,7,4,17,0.05
2013-8-1,84,74,63,61,54,50,92,51,31,0.00,40.00,9,6,27,0.05
2013-8-2,76,66,59,59,54,49,91,68,48,0.00,40.00,11,7,26,0.06
2013-8-3,80,67,58,61,58,56,95,75,48,0.00,40.00,13,7,22,0.05
2013-8-4,89,71,62,62,60,57,95,70,35,0.00,40.00,7,5,17,0.03
2013-8-5,88,72,60,61,54,48,78,57,25,0.00,40.00,8,5,25,0.09
2013-8-6,84,70,57,57,52,47,92,55,29,0.00,40.00,6,4,18,0.07
2013-8-7,83,68,57,57,50,45,89,55,27,0.00,40.00,9,5,25,0.43
2013-8-8,79,67,54,56,54,50,87,64,43,0.00,40.00,7,5,18,0.43
2013-8-9,77,67,60,58,54,47,89,64,43,0.00,40.00,8,5,20,0.15
2013-8-10,85,71,57,58,54,46,93,60,31,0.00,40.00,7,4,18,0.15
2013-8-11,82,69,58,59,54,45,87,62,38,0.00,40.00,10,5,27,0.32
2013-8-12,83,71,58,59,51,43,75,50,27,0.00,40.00,7,3,16,0.08
2013-8-13,82,67,56,61,55,-100,91,73,39,0.00,40.00,8,6,29,0.16
2013-8-14,82,64,54,57,51,-100,94,68,33,0.00,40.00,6,3,24,0.16
2013-8-15,81,62,57,59,41,-100,91,59,33,0.00,40.00,7,4,21,0.03
2013-8-16,88,68,58,61,53,-100,98,69,23,0.00,40.00,7,4,13,0.01
2013-8-17,93,77,64,58,55,48,73,50,23,0.00,40.00,7,5,15,0.00
2013-8-18,82,74,66,63,60,57,79,61,50,0.00,40.00,7,4,25,0.00
2013-8-21,80,72,62,56,51,46,73,49,36,0.00,40.00,7,4,17,0.03
2013-8-22,82,72,62,61,56,51,79,60,38,0.00,40.00,9,5,24,0.01
2013-8-23,90,76,65,64,58,50,91,60,28,0.00,40.00,9,5,18,0.00
2013-8-24,92,80,68,53,49,45,55,36,21,0.00,40.00,9,5,20,0.00
2013-8-25,92,83,68,56,51,46,48,34,23,0.00,40.00,8,5,15,0.00
2013-8-26,94,82,71,57,50,41,61,36,17,0.00,40.00,9,5,21,0.00
2013-8-27,91,77,72,52,50,49,47,39,26,0.00,40.00,9,4,18,0.00
2013-8-28,91,84,76,66,62,55,64,48,35,0.00,40.00,6,4,21,0.00
2013-8-29,96,80,70,53,50,44,46,35,22,0.00,40.00,12,5,18,0.00
2013-8-30,97,79,67,62,57,51,71,49,21,0.00,40.00,10,6,24,0.00
2013-8-31,89,74,63,57,52,41,78,49,27,0.00,40.00,9,5,17,0.00
2013-9-1,85,71,53,43,40,35,58,35,17,0.00,40.00,8,4,23,0.00
2013-9-2,93,78,63,54,48,42,51,36,20,0.00,40.00,8,5,16,0.00
2013-9-3,95,82,71,58,54,50,55,39,23,0.00,40.00,8,5,24,0.00
2013-9-4,94,80,68,60,57,54,64,48,28,0.00,40.00,9,5,23,0.00
2013-9-5,95,81,69,62,58,52,75,50,24,0.00,40.00,7,5,16,0.00
2013-9-6,94,83,72,57,51,43,52,35,19,0.00,40.00,6,4,16,0.00
2013-9-7,92,81,72,60,54,49,62,41,28,0.00,40.00,12,6,20,0.00
2013-9-17,90,71,54,57,49,42,98,56,21,0.00,40.00,7,4,14,0.00
2013-9-18,72,65,60,46,44,43,59,48,35,0.00,40.00,3,3,10,0.00
2013-9-19,65,56,47,47,37,31,71,50,31,0.00,40.00,10,5,24,0.00
2013-9-20,73,56,41,37,33,28,82,47,20,0.00,40.00,6,4,14,0.00
2013-9-21,90,70,52,37,31,25,48,27,11,0.00,40.00,8,4,19,0.00
2013-9-22,87,74,62,50,40,34,64,32,18,0.00,40.00,11,6,33,0.00
2013-9-23,61,56,49,53,49,39,94,79,48,0.00,40.00,9,4,19,0.32
2013-9-24,74,61,47,47,38,32,92,48,21,0.00,40.00,12,7,21,0.02
2013-9-25,80,67,53,45,40,36,53,39,24,0.00,40.00,14,7,27,0.00
2013-9-26,70,56,48,48,42,37,93,62,30,0.00,40.00,11,6,23,0.00
2013-9-27,49,42,37,41,39,36,97,89,62,0.00,40.00,8,5,22,0.15
2013-9-28,63,48,33,36,32,29,96,62,28,0.00,40.00,13,6,28,0.01
2013-9-29,75,61,49,36,32,26,59,37,16,0.00,40.00,17,7,36,0.00
2013-9-30,82,66,51,40,34,30,52,33,17,0.00,40.00,20,9,39,0.00
2013-10-3,50,46,36,38,36,32,95,70,53,0.00,40.00,15,10,40,0.32
2013-10-4,36,32,29,34,31,28,99,96,86,0.00,40.00,12,6,30,0.23
2013-10-5,40,32,27,30,27,23,94,80,61,0.00,40.00,12,8,32,0.43
2013-10-6,58,44,32,36,32,28,87,66,42,0.00,40.00,8,4,16,0.47
2013-10-7,69,54,41,40,35,32,75,52,26,0.00,40.00,8,3,14,0.03
2013-10-8,70,57,51,42,34,31,51,42,27,0.00,40.00,6,4,14,0.00
2013-10-9,59,51,45,35,31,27,65,48,30,0.00,40.00,8,4,22,0.00
2013-10-17,43,37,31,31,24,17,85,60,41,0.00,40.00,8,5,19,0.00
2013-10-18,40,34,28,29,25,22,94,69,53,0.00,40.00,11,6,22,0.00
2013-10-19,60,46,33,30,26,24,68,48,29,0.00,40.00,10,5,23,0.00
2013-10-20,49,43,37,36,32,27,82,65,45,0.00,40.00,10,6,26,0.00
2013-10-21,52,43,34,37,34,31,90,74,49,0.00,40.00,14,6,28,0.00
2013-10-22,58,46,41,38,37,35,89,70,46,0.00,40.00,7,4,18,0.00
2013-10-23,59,44,39,39,37,35,94,78,40,0.00,40.00,7,3,17,0.00
2013-10-24,52,42,36,36,35,34,93,78,51,0.00,40.00,6,4,11,0.00
2013-10-25,67,50,38,39,36,32,85,61,31,0.00,40.00,7,4,13,0.00
2013-10-26,63,50,36,32,30,26,68,48,29,0.00,40.00,7,3,15,0.00
2013-10-27,68,50,37,35,31,27,80,52,22,0.00,40.00,18,6,44,0.00
2013-10-28,35,26,24,30,23,-100,95,91,81,0.00,40.00,16,11,44,0.00
2013-10-29,30,26,23,28,25,22,96,94,90,0.00,40.00,9,4,21,0.00
2013-10-30,48,37,29,39,32,27,97,82,60,0.00,40.00,6,4,16,0.12
2013-10-31,50,42,34,35,29,26,81,62,44,0.00,40.00,11,7,31,0.12
2013-11-1,49,40,35,34,25,18,85,59,30,0.00,40.00,16,8,35,0.00
2013-11-2,58,44,32,29,23,19,63,45,28,0.00,40.00,11,4,19,0.00
2013-11-3,53,46,37,32,27,21,79,49,32,0.00,40.00,7,4,22,0.00
2013-11-4,41,35,29,27,20,16,91,57,41,0.00,40.00,7,4,16,0.00
2013-11-5,31,27,22,27,25,21,96,92,83,0.00,40.00,6,3,13,0.07
2013-11-6,44,30,16,32,24,14,96,80,53,0.00,40.00,8,3,19,0.12
2013-11-7,48,38,27,31,28,23,97,69,43,0.00,40.00,6,4,12,0.03
2013-11-8,51,45,37,34,25,20,70,47,30,0.00,40.00,13,7,33,0.00
2013-11-9,47,38,33,29,24,18,68,56,42,0.00,40.00,6,3,12,0.00
2013-11-10,60,46,35,31,26,18,71,49,31,0.00,40.00,8,4,18,0.00
2013-11-11,32,23,19,27,21,17,97,92,82,0.00,40.00,8,4,18,0.00
2013-11-12,55,38,22,33,28,21,95,70,37,0.00,40.00,5,3,10,0.00
2013-11-13,60,48,39,35,28,24,66,47,28,0.00,40.00,5,3,11,0.00
2013-11-14,49,42,35,38,30,23,95,67,39,0.00,40.00,8,3,14,0.02
2013-11-15,51,42,35,31,26,21,72,55,39,0.00,40.00,7,4,17,0.00
2013-11-16,46,38,30,24,21,16,67,49,36,0.00,40.00,15,7,33,0.00
2013-11-17,44,36,30,27,16,5,89,49,21,0.00,40.00,13,7,31,0.00
2013-11-18,55,40,28,23,16,7,45,37,28,0.00,40.00,7,2,13,0.00
2013-11-19,56,47,40,27,23,18,55,39,29,0.00,40.00,7,3,13,0.00
2013-11-20,55,38,16,31,24,10,89,60,36,0.00,40.00,12,4,25,0.00
2013-11-21,15,12,5,11,7,1,87,82,73,0.00,40.00,6,4,14,0.00
2013-11-22,30,16,2,11,4,-3,81,61,40,0.00,40.00,5,2,9,0.13
2013-11-23,40,24,12,10,6,3,75,48,27,0.00,40.00,6,3,9,0.01
2013-11-24,41,31,23,21,14,6,61,51,41,0.00,40.00,6,4,14,0.01
2013-11-25,44,36,29,25,20,15,72,53,44,0.00,40.00,7,3,15,0.00
2013-11-26,37,30,26,20,16,11,74,57,41,0.00,40.00,8,4,12,0.00
2013-11-27,54,38,26,24,20,16,69,50,28,0.00,40.00,8,4,13,0.00
2013-11-28,41,32,23,24,22,20,89,68,50,0.00,40.00,8,4,14,0.00
2013-11-29,54,41,30,26,23,20,74,51,30,0.00,40.00,6,3,14,0.00
2013-11-30,51,40,34,26,23,21,65,52,34,0.00,40.00,5,3,10,0.00
2013-12-1,48,40,31,28,26,23,75,57,44,0.00,40.00,10,4,22,0.00
2013-12-2,54,43,37,33,28,26,84,57,38,0.00,40.00,8,5,25,0.00
2013-12-3,35,20,8,32,18,1,98,90,81,0.00,40.00,7,5,19,0.00
2013-12-12,45,30,19,19,14,9,63,51,33,0.00,40.00,6,3,11,0.13
2013-12-13,40,31,27,26,18,12,86,59,44,0.00,40.00,5,3,12,0.02
2013-12-14,41,34,27,28,23,20,93,66,48,0.00,40.00,9,6,25,0.00
2013-12-15,50,40,32,24,22,19,60,48,35,0.00,40.00,12,6,27,0.00
2013-12-16,47,40,33,22,20,17,61,45,35,0.00,40.00,8,5,24,0.00
2013-12-17,46,35,24,23,20,18,80,56,37,0.00,40.00,6,3,12,0.00
2013-12-18,57,44,36,22,20,17,54,38,24,0.00,40.00,9,5,19,0.00
2013-12-19,32,15,-1,24,11,-6,96,86,64,0.00,40.00,10,6,21,0.00
2013-12-20,24,9,-3,16,3,-8,82,76,66,0.00,40.00,6,2,11,0.10
2013-12-21,26,19,15,21,14,9,90,81,64,0.00,40.00,6,3,12,0.01
2013-12-22,21,13,3,14,8,-1,86,81,71,0.00,40.00,6,4,16,0.00
2013-12-23,26,12,-2,20,5,-7,82,74,57,0.00,40.00,5,2,8,0.04
2013-12-24,38,31,24,31,25,18,90,80,64,0.00,40.00,9,5,22,0.05
2013-12-25,34,26,19,18,14,12,82,62,45,0.00,40.00,7,5,17,0.01
2013-12-26,44,32,20,23,17,11,73,55,40,0.00,40.00,7,4,15,0.00
2013-12-28,41,29,5,24,15,-1,77,58,46,0.00,40.00,11,5,23,0.00
2013-12-29,29,16,0,18,-2,-100,81,62,42,0.00,40.00,6,3,12,0.00
2013-12-30,37,30,21,27,23,18,92,77,57,0.00,40.00,12,7,30,0.00
2013-12-31,41,32,26,26,21,17,89,66,51,0.00,40.00,6,3,9,0.00
2014-1-1,32,24,20,26,20,16,96,84,59,0.00,40.00,8,4,18,0.01
2014-1-2,36,26,17,19,17,14,93,71,45,0.00,40.00,6,3,10,0.01